sensor_id;sensor_type;location;lat;lon;timestamp;temperature;humidity
736;DHT22;352;48.626;9.238;2022-11-15T09:15:34;12.10;99.90
736;DHT22;352;48.626;9.238;2022-11-15T09:18:00;12.40;99.90
736;DHT22;352;48.626;9.238;2022-11-15T09:20:28;12.70;99.90
736;DHT22;352;48.626;9.238;2022-11-15T09:22:54;13.00;99.90
736;DHT22;352;48.626;9.238;2022-11-15T09:25:21;13.20;99.90
736;DHT22;352;48.626;9.238;2022-11-15T09:27:48;13.30;99.90
736;DHT22;352;48.626;9.238;2022-11-15T09:30:15;13.40;99.90
736;DHT22;352;48.626;9.238;2022-11-15T09:32:43;13.40;99.90
736;DHT22;352;48.626;9.238;2022-11-15T09:35:10;13.40;99.90
736;DHT22;352;48.626;9.238;2022-11-15T09:37:37;13.30;99.90
736;DHT22;352;48.626;9.238;2022-11-15T09:40:05;13.30;99.90
736;DHT22;352;48.626;9.238;2022-11-15T09:42:44;13.20;99.90
736;DHT22;352;48.626;9.238;2022-11-15T09:45:20;13.30;99.90
736;DHT22;352;48.626;9.238;2022-11-15T09:48:03;13.30;99.90
736;DHT22;352;48.626;9.238;2022-11-15T09:50:38;13.40;99.90
736;DHT22;352;48.626;9.238;2022-11-15T09:53:11;13.40;99.90
736;DHT22;352;48.626;9.238;2022-11-15T09:55:44;13.60;99.90
736;DHT22;352;48.626;9.238;2022-11-15T09:58:19;13.70;99.90
736;DHT22;352;48.626;9.238;2022-11-15T10:00:48;13.90;99.90
736;DHT22;352;48.626;9.238;2022-11-15T10:03:25;14.10;99.90
736;DHT22;352;48.626;9.238;2022-11-15T10:05:55;14.20;99.90
736;DHT22;352;48.626;9.238;2022-11-15T10:08:37;14.40;99.90
736;DHT22;352;48.626;9.238;2022-11-15T10:11:08;14.60;99.90
736;DHT22;352;48.626;9.238;2022-11-15T10:13:40;14.80;99.90
736;DHT22;352;48.626;9.238;2022-11-15T10:16:15;15.00;99.90
736;DHT22;352;48.626;9.238;2022-11-15T10:18:53;15.20;99.90
736;DHT22;352;48.626;9.238;2022-11-15T10:24:15;15.50;99.90
736;DHT22;352;48.626;9.238;2022-11-15T10:26:46;15.50;99.90
736;DHT22;352;48.626;9.238;2022-11-15T10:29:18;15.60;99.90
736;DHT22;352;48.626;9.238;2022-11-15T10:31:45;15.50;99.90
736;DHT22;352;48.626;9.238;2022-11-15T14:08:29;14.40;99.90
736;DHT22;352;48.626;9.238;2022-11-15T14:14:21;14.30;99.90
736;DHT22;352;48.626;9.238;2022-11-15T14:16:50;14.40;99.90
736;DHT22;352;48.626;9.238;2022-11-15T14:19:37;14.30;99.90
736;DHT22;352;48.626;9.238;2022-11-15T14:22:55;14.20;99.90
736;DHT22;352;48.626;9.238;2022-11-15T14:25:51;14.20;99.90
736;DHT22;352;48.626;9.238;2022-11-15T14:28:29;14.00;99.90
736;DHT22;352;48.626;9.238;2022-11-15T15:10:27;13.80;99.90
736;DHT22;352;48.626;9.238;2022-11-15T15:12:57;13.80;99.90
736;DHT22;352;48.626;9.238;2022-11-15T15:29:40;13.50;99.90
736;DHT22;352;48.626;9.238;2022-11-15T15:47:00;13.30;99.90
736;DHT22;352;48.626;9.238;2022-11-15T15:48:38;13.20;99.90
736;DHT22;352;48.626;9.238;2022-11-15T15:51:35;13.10;99.90
736;DHT22;352;48.626;9.238;2022-11-15T15:54:19;13.10;99.90
736;DHT22;352;48.626;9.238;2022-11-15T15:56:49;13.70;99.90
736;DHT22;352;48.626;9.238;2022-11-15T15:59:16;13.10;99.90
736;DHT22;352;48.626;9.238;2022-11-15T16:02:08;13.00;99.90
736;DHT22;352;48.626;9.238;2022-11-15T16:08:12;12.70;99.90
736;DHT22;352;48.626;9.238;2022-11-15T16:10:40;12.90;99.90
736;DHT22;352;48.626;9.238;2022-11-15T16:13:10;12.90;99.90
736;DHT22;352;48.626;9.238;2022-11-15T16:16:41;13.00;99.90
736;DHT22;352;48.626;9.238;2022-11-15T16:19:04;12.80;99.90
736;DHT22;352;48.626;9.238;2022-11-15T16:21:33;12.80;99.90
736;DHT22;352;48.626;9.238;2022-11-15T16:32:06;12.80;99.90
736;DHT22;352;48.626;9.238;2022-11-15T16:34:34;12.70;99.90
736;DHT22;352;48.626;9.238;2022-11-15T16:37:01;12.70;99.90
736;DHT22;352;48.626;9.238;2022-11-15T16:39:27;12.60;99.90
736;DHT22;352;48.626;9.238;2022-11-15T16:41:56;12.80;99.90
736;DHT22;352;48.626;9.238;2022-11-15T16:44:24;12.70;99.90
736;DHT22;352;48.626;9.238;2022-11-15T16:51:55;12.70;99.90
736;DHT22;352;48.626;9.238;2022-11-15T16:54:22;12.70;99.90
736;DHT22;352;48.626;9.238;2022-11-15T16:56:49;12.70;99.90
736;DHT22;352;48.626;9.238;2022-11-15T16:59:16;12.50;99.90
736;DHT22;352;48.626;9.238;2022-11-15T17:01:45;12.60;99.90
736;DHT22;352;48.626;9.238;2022-11-15T17:04:16;12.60;99.90
736;DHT22;352;48.626;9.238;2022-11-15T17:06:44;12.60;99.90
736;DHT22;352;48.626;9.238;2022-11-15T17:09:13;12.70;99.90
736;DHT22;352;48.626;9.238;2022-11-15T17:11:41;12.60;99.90
736;DHT22;352;48.626;9.238;2022-11-15T17:14:08;12.60;99.90
736;DHT22;352;48.626;9.238;2022-11-15T17:16:35;12.60;99.90
736;DHT22;352;48.626;9.238;2022-11-15T17:19:10;12.50;99.90
736;DHT22;352;48.626;9.238;2022-11-15T17:21:37;12.50;99.90
736;DHT22;352;48.626;9.238;2022-11-15T17:24:04;12.70;99.90
736;DHT22;352;48.626;9.238;2022-11-15T17:26:32;12.50;99.90
736;DHT22;352;48.626;9.238;2022-11-15T17:28:59;12.40;99.90
736;DHT22;352;48.626;9.238;2022-11-15T17:31:27;12.50;99.90
736;DHT22;352;48.626;9.238;2022-11-15T17:33:55;12.30;99.90
736;DHT22;352;48.626;9.238;2022-11-15T17:36:22;12.40;99.90
736;DHT22;352;48.626;9.238;2022-11-15T17:38:48;12.40;99.90
736;DHT22;352;48.626;9.238;2022-11-15T17:41:17;12.50;99.90
736;DHT22;352;48.626;9.238;2022-11-15T17:44:06;12.40;99.90
736;DHT22;352;48.626;9.238;2022-11-15T17:46:36;12.50;99.90
736;DHT22;352;48.626;9.238;2022-11-15T17:49:03;12.60;99.90
736;DHT22;352;48.626;9.238;2022-11-15T18:16:49;12.40;99.90
736;DHT22;352;48.626;9.238;2022-11-15T18:19:24;12.40;99.90
736;DHT22;352;48.626;9.238;2022-11-15T18:21:51;12.30;99.90
736;DHT22;352;48.626;9.238;2022-11-15T18:24:27;12.30;99.90
736;DHT22;352;48.626;9.238;2022-11-15T18:26:54;12.30;99.90
736;DHT22;352;48.626;9.238;2022-11-15T18:29:21;12.30;99.90
736;DHT22;352;48.626;9.238;2022-11-15T18:31:52;12.30;99.90
736;DHT22;352;48.626;9.238;2022-11-15T18:34:20;12.30;99.90
736;DHT22;352;48.626;9.238;2022-11-15T18:36:48;12.30;99.90
736;DHT22;352;48.626;9.238;2022-11-15T18:39:15;12.30;99.90
736;DHT22;352;48.626;9.238;2022-11-15T18:41:43;12.30;99.90
736;DHT22;352;48.626;9.238;2022-11-15T18:44:11;12.30;99.90
736;DHT22;352;48.626;9.238;2022-11-15T18:46:38;12.30;99.90
736;DHT22;352;48.626;9.238;2022-11-15T18:49:10;12.30;99.90
736;DHT22;352;48.626;9.238;2022-11-15T18:51:37;12.30;99.90
736;DHT22;352;48.626;9.238;2022-11-15T18:54:07;12.30;99.90
736;DHT22;352;48.626;9.238;2022-11-15T18:56:34;12.30;99.90
736;DHT22;352;48.626;9.238;2022-11-15T18:59:02;12.30;99.90
736;DHT22;352;48.626;9.238;2022-11-15T19:01:30;12.40;99.90
736;DHT22;352;48.626;9.238;2022-11-15T19:04:01;12.40;99.90
736;DHT22;352;48.626;9.238;2022-11-15T19:06:30;12.40;99.90
736;DHT22;352;48.626;9.238;2022-11-15T19:08:58;12.50;99.90
736;DHT22;352;48.626;9.238;2022-11-15T19:11:26;12.50;99.90
736;DHT22;352;48.626;9.238;2022-11-15T19:17:00;12.50;99.90
736;DHT22;352;48.626;9.238;2022-11-15T19:19:31;12.50;99.90
736;DHT22;352;48.626;9.238;2022-11-15T19:22:03;12.60;99.90
736;DHT22;352;48.626;9.238;2022-11-15T19:24:32;12.50;99.90
736;DHT22;352;48.626;9.238;2022-11-15T19:27:01;12.50;99.90
736;DHT22;352;48.626;9.238;2022-11-15T19:29:48;12.60;99.90
736;DHT22;352;48.626;9.238;2022-11-15T19:32:21;12.60;99.90
736;DHT22;352;48.626;9.238;2022-11-15T19:34:52;12.60;99.90
736;DHT22;352;48.626;9.238;2022-11-15T19:37:59;12.70;99.90
736;DHT22;352;48.626;9.238;2022-11-15T19:40:32;12.70;99.90
736;DHT22;352;48.626;9.238;2022-11-15T19:43:29;12.60;99.90
736;DHT22;352;48.626;9.238;2022-11-15T19:46:50;12.50;99.90
736;DHT22;352;48.626;9.238;2022-11-15T19:49:45;12.60;99.90
736;DHT22;352;48.626;9.238;2022-11-15T19:52:17;12.50;99.90
736;DHT22;352;48.626;9.238;2022-11-15T19:54:58;12.50;99.90
736;DHT22;352;48.626;9.238;2022-11-15T19:57:58;12.50;99.90
736;DHT22;352;48.626;9.238;2022-11-15T20:00:30;12.50;99.90
736;DHT22;352;48.626;9.238;2022-11-15T20:03:03;12.50;99.90
736;DHT22;352;48.626;9.238;2022-11-15T20:05:42;12.60;99.90
736;DHT22;352;48.626;9.238;2022-11-15T20:08:36;12.60;99.90
736;DHT22;352;48.626;9.238;2022-11-15T20:11:21;12.60;99.90
736;DHT22;352;48.626;9.238;2022-11-15T20:14:07;12.60;99.90
736;DHT22;352;48.626;9.238;2022-11-15T20:16:39;12.60;99.90
736;DHT22;352;48.626;9.238;2022-11-15T20:19:15;12.60;99.90
736;DHT22;352;48.626;9.238;2022-11-15T20:21:49;12.60;99.90
736;DHT22;352;48.626;9.238;2022-11-15T20:24:32;12.50;99.90
736;DHT22;352;48.626;9.238;2022-11-15T20:27:08;12.50;99.90
736;DHT22;352;48.626;9.238;2022-11-15T20:29:46;12.40;99.90
736;DHT22;352;48.626;9.238;2022-11-15T20:32:32;12.40;99.90
736;DHT22;352;48.626;9.238;2022-11-15T20:35:12;12.30;99.90
736;DHT22;352;48.626;9.238;2022-11-15T20:38:19;12.30;99.90
736;DHT22;352;48.626;9.238;2022-11-15T20:40:53;12.30;99.90
736;DHT22;352;48.626;9.238;2022-11-15T20:43:39;12.30;99.90
736;DHT22;352;48.626;9.238;2022-11-15T20:46:13;12.30;99.90
736;DHT22;352;48.626;9.238;2022-11-15T20:48:56;12.30;99.90
736;DHT22;352;48.626;9.238;2022-11-15T20:51:35;12.30;99.90
736;DHT22;352;48.626;9.238;2022-11-15T20:54:14;12.30;99.90
736;DHT22;352;48.626;9.238;2022-11-15T20:56:52;12.30;99.90
736;DHT22;352;48.626;9.238;2022-11-15T20:59:28;12.30;99.90
736;DHT22;352;48.626;9.238;2022-11-15T21:02:01;12.30;99.90
736;DHT22;352;48.626;9.238;2022-11-15T21:04:32;12.30;99.90
736;DHT22;352;48.626;9.238;2022-11-15T21:07:02;12.30;99.90
736;DHT22;352;48.626;9.238;2022-11-15T21:13:27;12.20;99.90
736;DHT22;352;48.626;9.238;2022-11-15T21:19:25;12.20;99.90
736;DHT22;352;48.626;9.238;2022-11-15T21:21:58;12.20;99.90
736;DHT22;352;48.626;9.238;2022-11-15T21:24:24;12.20;99.90
736;DHT22;352;48.626;9.238;2022-11-15T21:26:51;12.20;99.90
736;DHT22;352;48.626;9.238;2022-11-15T21:29:19;12.20;99.90
736;DHT22;352;48.626;9.238;2022-11-15T21:31:47;12.20;99.90
736;DHT22;352;48.626;9.238;2022-11-15T21:34:16;12.20;99.90
736;DHT22;352;48.626;9.238;2022-11-15T21:36:43;12.20;99.90
736;DHT22;352;48.626;9.238;2022-11-15T21:39:10;12.10;99.90
736;DHT22;352;48.626;9.238;2022-11-15T21:41:37;12.10;99.90
736;DHT22;352;48.626;9.238;2022-11-15T21:44:04;12.10;99.90
736;DHT22;352;48.626;9.238;2022-11-15T21:46:31;12.10;99.90
736;DHT22;352;48.626;9.238;2022-11-15T21:48:58;12.20;99.90
736;DHT22;352;48.626;9.238;2022-11-15T21:51:26;12.10;99.90
736;DHT22;352;48.626;9.238;2022-11-15T21:53:54;12.10;99.90
736;DHT22;352;48.626;9.238;2022-11-15T21:56:21;12.10;99.90
736;DHT22;352;48.626;9.238;2022-11-15T21:58:48;12.10;99.90
736;DHT22;352;48.626;9.238;2022-11-15T22:01:15;12.10;99.90
736;DHT22;352;48.626;9.238;2022-11-15T22:03:59;12.10;99.90
736;DHT22;352;48.626;9.238;2022-11-15T22:06:27;12.10;99.90
736;DHT22;352;48.626;9.238;2022-11-15T22:08:54;12.10;99.90
736;DHT22;352;48.626;9.238;2022-11-15T22:11:21;12.10;99.90
736;DHT22;352;48.626;9.238;2022-11-15T22:13:48;12.10;99.90
736;DHT22;352;48.626;9.238;2022-11-15T22:16:15;12.10;99.90
736;DHT22;352;48.626;9.238;2022-11-15T22:18:41;12.20;99.90
736;DHT22;352;48.626;9.238;2022-11-15T22:21:32;12.10;99.90
736;DHT22;352;48.626;9.238;2022-11-15T22:24:05;12.10;99.90
736;DHT22;352;48.626;9.238;2022-11-15T22:26:32;12.10;99.90
736;DHT22;352;48.626;9.238;2022-11-15T22:28:59;12.10;99.90
736;DHT22;352;48.626;9.238;2022-11-15T22:31:26;12.10;99.90
736;DHT22;352;48.626;9.238;2022-11-15T22:33:53;12.10;99.90
736;DHT22;352;48.626;9.238;2022-11-15T22:36:20;12.10;99.90
736;DHT22;352;48.626;9.238;2022-11-15T22:38:48;12.10;99.90
736;DHT22;352;48.626;9.238;2022-11-15T22:41:14;12.10;99.90
736;DHT22;352;48.626;9.238;2022-11-15T22:43:41;12.10;99.90
736;DHT22;352;48.626;9.238;2022-11-15T22:46:09;12.10;99.90
736;DHT22;352;48.626;9.238;2022-11-15T22:48:37;12.10;99.90
736;DHT22;352;48.626;9.238;2022-11-15T22:51:04;12.10;99.90
736;DHT22;352;48.626;9.238;2022-11-15T22:53:31;12.10;99.90
736;DHT22;352;48.626;9.238;2022-11-15T22:56:01;12.10;99.90
736;DHT22;352;48.626;9.238;2022-11-15T22:58:29;12.10;99.90
736;DHT22;352;48.626;9.238;2022-11-15T23:00:59;12.10;99.90
736;DHT22;352;48.626;9.238;2022-11-15T23:03:27;12.10;99.90
736;DHT22;352;48.626;9.238;2022-11-15T23:05:59;12.10;99.90
736;DHT22;352;48.626;9.238;2022-11-15T23:08:25;12.00;99.90
736;DHT22;352;48.626;9.238;2022-11-15T23:10:52;12.00;99.90
736;DHT22;352;48.626;9.238;2022-11-15T23:13:38;12.00;99.90
736;DHT22;352;48.626;9.238;2022-11-15T23:16:07;12.00;99.90
736;DHT22;352;48.626;9.238;2022-11-15T23:18:59;12.00;99.90
736;DHT22;352;48.626;9.238;2022-11-15T23:21:28;12.00;99.90
736;DHT22;352;48.626;9.238;2022-11-15T23:24:13;12.00;99.90
736;DHT22;352;48.626;9.238;2022-11-15T23:26:41;12.00;99.90
736;DHT22;352;48.626;9.238;2022-11-15T23:29:11;12.00;99.90
736;DHT22;352;48.626;9.238;2022-11-15T23:31:38;12.00;99.90
736;DHT22;352;48.626;9.238;2022-11-15T23:34:24;12.00;99.90
736;DHT22;352;48.626;9.238;2022-11-15T23:36:51;11.90;99.90
736;DHT22;352;48.626;9.238;2022-11-15T23:39:18;11.90;99.90
736;DHT22;352;48.626;9.238;2022-11-15T23:41:45;11.90;99.90
736;DHT22;352;48.626;9.238;2022-11-15T23:44:13;11.90;99.90
736;DHT22;352;48.626;9.238;2022-11-15T23:46:40;11.90;99.90
736;DHT22;352;48.626;9.238;2022-11-15T23:49:07;11.90;99.90
736;DHT22;352;48.626;9.238;2022-11-15T23:51:34;11.90;99.90
736;DHT22;352;48.626;9.238;2022-11-15T23:54:01;11.90;99.90
736;DHT22;352;48.626;9.238;2022-11-15T23:56:28;11.90;99.90
736;DHT22;352;48.626;9.238;2022-11-15T23:58:54;11.90;99.90
